sensor_id;sensor_type;location;lat;lon;timestamp;temperature;humidity
262;DHT22;114;48.260;10.988;2023-04-24T00:00:09;10.10;92.70
262;DHT22;114;48.260;10.988;2023-04-24T00:02:36;10.00;91.70
262;DHT22;114;48.260;10.988;2023-04-24T00:05:06;10.00;91.90
262;DHT22;114;48.260;10.988;2023-04-24T00:07:32;9.90;92.60
262;DHT22;114;48.260;10.988;2023-04-24T00:09:58;10.00;93.50
262;DHT22;114;48.260;10.988;2023-04-24T00:12:24;10.00;93.10
262;DHT22;114;48.260;10.988;2023-04-24T00:14:50;9.90;93.60
262;DHT22;114;48.260;10.988;2023-04-24T00:17:16;9.90;91.80
262;DHT22;114;48.260;10.988;2023-04-24T00:19:45;10.00;90.50
262;DHT22;114;48.260;10.988;2023-04-24T00:22:11;9.90;91.50
262;DHT22;114;48.260;10.988;2023-04-24T00:24:39;9.90;93.00
262;DHT22;114;48.260;10.988;2023-04-24T00:27:05;9.90;92.80
262;DHT22;114;48.260;10.988;2023-04-24T00:29:31;9.90;92.20
262;DHT22;114;48.260;10.988;2023-04-24T00:31:56;9.90;91.20
262;DHT22;114;48.260;10.988;2023-04-24T00:34:22;9.90;91.10
262;DHT22;114;48.260;10.988;2023-04-24T00:36:48;9.90;91.50
262;DHT22;114;48.260;10.988;2023-04-24T00:39:20;9.90;91.30
262;DHT22;114;48.260;10.988;2023-04-24T00:41:46;9.80;91.20
262;DHT22;114;48.260;10.988;2023-04-24T00:44:14;9.80;91.20
262;DHT22;114;48.260;10.988;2023-04-24T00:46:40;9.80;91.50
262;DHT22;114;48.260;10.988;2023-04-24T00:49:06;9.80;91.60
262;DHT22;114;48.260;10.988;2023-04-24T00:51:32;9.80;91.10
262;DHT22;114;48.260;10.988;2023-04-24T00:54:01;9.80;90.60
262;DHT22;114;48.260;10.988;2023-04-24T00:56:27;9.80;89.80
262;DHT22;114;48.260;10.988;2023-04-24T00:58:53;9.70;89.60
262;DHT22;114;48.260;10.988;2023-04-24T01:01:20;9.70;90.90
262;DHT22;114;48.260;10.988;2023-04-24T01:03:47;9.70;90.50
262;DHT22;114;48.260;10.988;2023-04-24T01:06:14;9.70;88.70
262;DHT22;114;48.260;10.988;2023-04-24T01:08:41;9.70;87.40
262;DHT22;114;48.260;10.988;2023-04-24T01:11:07;9.60;88.10
262;DHT22;114;48.260;10.988;2023-04-24T01:13:33;9.70;89.10
262;DHT22;114;48.260;10.988;2023-04-24T01:16:00;9.60;90.20
262;DHT22;114;48.260;10.988;2023-04-24T01:18:26;9.60;90.10
262;DHT22;114;48.260;10.988;2023-04-24T01:20:58;9.60;90.00
262;DHT22;114;48.260;10.988;2023-04-24T01:23:25;9.60;91.00
262;DHT22;114;48.260;10.988;2023-04-24T01:25:51;9.60;90.00
262;DHT22;114;48.260;10.988;2023-04-24T01:28:17;9.60;86.30
262;DHT22;114;48.260;10.988;2023-04-24T01:30:43;9.60;87.30
262;DHT22;114;48.260;10.988;2023-04-24T01:33:10;9.60;86.30
262;DHT22;114;48.260;10.988;2023-04-24T01:35:36;9.60;88.50
262;DHT22;114;48.260;10.988;2023-04-24T01:38:03;9.50;88.10
262;DHT22;114;48.260;10.988;2023-04-24T01:40:28;9.50;89.10
262;DHT22;114;48.260;10.988;2023-04-24T01:42:54;9.50;89.30
262;DHT22;114;48.260;10.988;2023-04-24T01:45:20;9.60;86.70
262;DHT22;114;48.260;10.988;2023-04-24T01:47:46;9.50;87.60
262;DHT22;114;48.260;10.988;2023-04-24T01:50:13;9.60;87.90
262;DHT22;114;48.260;10.988;2023-04-24T01:52:39;9.50;88.20
262;DHT22;114;48.260;10.988;2023-04-24T01:55:05;9.50;89.70
262;DHT22;114;48.260;10.988;2023-04-24T01:57:31;9.50;90.40
262;DHT22;114;48.260;10.988;2023-04-24T01:59:58;9.50;89.10
262;DHT22;114;48.260;10.988;2023-04-24T02:02:23;9.50;88.20
262;DHT22;114;48.260;10.988;2023-04-24T02:04:52;9.50;90.20
262;DHT22;114;48.260;10.988;2023-04-24T02:07:18;9.50;90.20
262;DHT22;114;48.260;10.988;2023-04-24T02:09:44;9.50;91.00
262;DHT22;114;48.260;10.988;2023-04-24T02:12:09;9.40;91.40
262;DHT22;114;48.260;10.988;2023-04-24T02:14:35;9.40;91.70
262;DHT22;114;48.260;10.988;2023-04-24T02:17:01;9.50;91.00
262;DHT22;114;48.260;10.988;2023-04-24T02:19:26;9.50;91.00
262;DHT22;114;48.260;10.988;2023-04-24T02:21:52;9.50;91.10
262;DHT22;114;48.260;10.988;2023-04-24T02:24:18;9.50;91.10
262;DHT22;114;48.260;10.988;2023-04-24T02:26:43;9.50;91.80
262;DHT22;114;48.260;10.988;2023-04-24T02:29:09;9.40;92.30
262;DHT22;114;48.260;10.988;2023-04-24T02:31:35;9.50;92.00
262;DHT22;114;48.260;10.988;2023-04-24T02:34:00;9.50;91.00
262;DHT22;114;48.260;10.988;2023-04-24T02:36:26;9.50;91.00
262;DHT22;114;48.260;10.988;2023-04-24T02:38:52;9.50;91.40
262;DHT22;114;48.260;10.988;2023-04-24T02:41:17;9.50;92.50
262;DHT22;114;48.260;10.988;2023-04-24T02:43:43;9.50;92.40
262;DHT22;114;48.260;10.988;2023-04-24T02:46:09;9.50;93.10
262;DHT22;114;48.260;10.988;2023-04-24T02:48:34;9.50;92.80
262;DHT22;114;48.260;10.988;2023-04-24T02:51:00;9.50;91.70
262;DHT22;114;48.260;10.988;2023-04-24T02:53:26;9.60;89.20
262;DHT22;114;48.260;10.988;2023-04-24T02:55:51;9.60;90.80
262;DHT22;114;48.260;10.988;2023-04-24T02:58:17;9.50;91.40
262;DHT22;114;48.260;10.988;2023-04-24T03:00:45;9.50;91.60
262;DHT22;114;48.260;10.988;2023-04-24T03:03:11;9.60;90.90
262;DHT22;114;48.260;10.988;2023-04-24T03:05:37;9.60;90.80
262;DHT22;114;48.260;10.988;2023-04-24T03:08:03;9.50;91.00
262;DHT22;114;48.260;10.988;2023-04-24T03:10:28;9.50;91.40
262;DHT22;114;48.260;10.988;2023-04-24T03:12:54;9.50;91.90
262;DHT22;114;48.260;10.988;2023-04-24T03:15:20;9.40;92.70
262;DHT22;114;48.260;10.988;2023-04-24T03:17:46;9.40;92.90
262;DHT22;114;48.260;10.988;2023-04-24T03:20:11;9.40;93.00
262;DHT22;114;48.260;10.988;2023-04-24T03:22:37;9.40;93.00
262;DHT22;114;48.260;10.988;2023-04-24T03:25:03;9.40;92.90
262;DHT22;114;48.260;10.988;2023-04-24T03:27:29;9.40;92.80
262;DHT22;114;48.260;10.988;2023-04-24T03:29:56;9.40;92.90
262;DHT22;114;48.260;10.988;2023-04-24T03:32:22;9.40;92.60
262;DHT22;114;48.260;10.988;2023-04-24T03:34:50;9.40;92.20
262;DHT22;114;48.260;10.988;2023-04-24T03:37:16;9.30;92.90
262;DHT22;114;48.260;10.988;2023-04-24T03:39:42;9.30;93.20
262;DHT22;114;48.260;10.988;2023-04-24T03:42:08;9.30;93.00
262;DHT22;114;48.260;10.988;2023-04-24T03:44:35;9.30;92.90
262;DHT22;114;48.260;10.988;2023-04-24T03:47:00;9.30;92.90
262;DHT22;114;48.260;10.988;2023-04-24T03:49:26;9.30;93.00
262;DHT22;114;48.260;10.988;2023-04-24T03:51:52;9.30;92.80
262;DHT22;114;48.260;10.988;2023-04-24T03:54:18;9.30;92.90
262;DHT22;114;48.260;10.988;2023-04-24T03:56:44;9.20;92.70
262;DHT22;114;48.260;10.988;2023-04-24T03:59:10;9.20;92.90
262;DHT22;114;48.260;10.988;2023-04-24T04:01:36;9.20;93.00
262;DHT22;114;48.260;10.988;2023-04-24T04:04:06;9.20;92.40
262;DHT22;114;48.260;10.988;2023-04-24T04:06:31;9.20;91.30
262;DHT22;114;48.260;10.988;2023-04-24T04:08:58;9.20;91.90
262;DHT22;114;48.260;10.988;2023-04-24T04:11:24;9.20;92.30
262;DHT22;114;48.260;10.988;2023-04-24T04:13:50;9.20;91.70
262;DHT22;114;48.260;10.988;2023-04-24T04:16:16;9.10;91.10
262;DHT22;114;48.260;10.988;2023-04-24T04:18:44;9.20;92.00
262;DHT22;114;48.260;10.988;2023-04-24T04:21:10;9.10;91.00
262;DHT22;114;48.260;10.988;2023-04-24T04:23:36;9.10;90.90
262;DHT22;114;48.260;10.988;2023-04-24T04:26:02;9.20;90.80
262;DHT22;114;48.260;10.988;2023-04-24T04:28:29;9.10;90.90
262;DHT22;114;48.260;10.988;2023-04-24T04:30:56;9.10;91.30
262;DHT22;114;48.260;10.988;2023-04-24T04:33:23;9.10;92.00
262;DHT22;114;48.260;10.988;2023-04-24T04:35:49;9.10;91.90
262;DHT22;114;48.260;10.988;2023-04-24T04:38:15;9.10;91.50
262;DHT22;114;48.260;10.988;2023-04-24T04:40:42;9.10;91.40
262;DHT22;114;48.260;10.988;2023-04-24T04:43:08;9.20;91.00
262;DHT22;114;48.260;10.988;2023-04-24T04:45:35;9.10;91.10
262;DHT22;114;48.260;10.988;2023-04-24T04:48:01;9.20;90.80
262;DHT22;114;48.260;10.988;2023-04-24T04:50:27;9.20;90.90
262;DHT22;114;48.260;10.988;2023-04-24T04:52:53;9.30;88.30
262;DHT22;114;48.260;10.988;2023-04-24T04:55:19;9.30;85.50
262;DHT22;114;48.260;10.988;2023-04-24T04:57:45;9.30;87.10
262;DHT22;114;48.260;10.988;2023-04-24T05:00:11;9.30;87.80
262;DHT22;114;48.260;10.988;2023-04-24T05:02:38;9.40;83.60
262;DHT22;114;48.260;10.988;2023-04-24T05:05:05;9.40;82.10
262;DHT22;114;48.260;10.988;2023-04-24T05:07:31;9.50;79.30
262;DHT22;114;48.260;10.988;2023-04-24T05:09:56;9.50;79.20
262;DHT22;114;48.260;10.988;2023-04-24T05:12:22;9.50;80.20
262;DHT22;114;48.260;10.988;2023-04-24T05:14:48;9.50;77.40
262;DHT22;114;48.260;10.988;2023-04-24T05:17:14;9.60;76.70
262;DHT22;114;48.260;10.988;2023-04-24T05:19:40;9.60;74.70
262;DHT22;114;48.260;10.988;2023-04-24T05:22:06;9.60;74.20
262;DHT22;114;48.260;10.988;2023-04-24T05:24:36;9.70;73.10
262;DHT22;114;48.260;10.988;2023-04-24T05:27:02;9.80;69.60
262;DHT22;114;48.260;10.988;2023-04-24T05:29:28;9.80;70.30
262;DHT22;114;48.260;10.988;2023-04-24T05:31:56;9.70;70.20
262;DHT22;114;48.260;10.988;2023-04-24T05:34:22;9.70;70.30
262;DHT22;114;48.260;10.988;2023-04-24T05:36:48;9.60;69.50
262;DHT22;114;48.260;10.988;2023-04-24T05:39:14;9.70;70.20
262;DHT22;114;48.260;10.988;2023-04-24T05:41:40;9.70;66.50
262;DHT22;114;48.260;10.988;2023-04-24T05:44:06;9.70;66.80
262;DHT22;114;48.260;10.988;2023-04-24T05:46:32;9.70;68.80
262;DHT22;114;48.260;10.988;2023-04-24T05:48:57;9.70;66.80
262;DHT22;114;48.260;10.988;2023-04-24T05:51:23;9.70;66.20
262;DHT22;114;48.260;10.988;2023-04-24T05:53:49;9.80;66.00
262;DHT22;114;48.260;10.988;2023-04-24T05:56:15;9.80;66.80
262;DHT22;114;48.260;10.988;2023-04-24T05:58:41;9.80;65.70
262;DHT22;114;48.260;10.988;2023-04-24T06:01:07;9.80;63.40
262;DHT22;114;48.260;10.988;2023-04-24T06:03:32;9.80;64.40
262;DHT22;114;48.260;10.988;2023-04-24T06:05:58;9.80;63.40
262;DHT22;114;48.260;10.988;2023-04-24T06:08:24;9.80;62.10
262;DHT22;114;48.260;10.988;2023-04-24T06:10:50;9.80;61.60
262;DHT22;114;48.260;10.988;2023-04-24T06:13:16;9.90;56.60
262;DHT22;114;48.260;10.988;2023-04-24T06:15:43;9.90;58.40
262;DHT22;114;48.260;10.988;2023-04-24T06:18:08;9.80;54.60
262;DHT22;114;48.260;10.988;2023-04-24T06:20:35;9.80;58.00
262;DHT22;114;48.260;10.988;2023-04-24T06:23:01;9.90;55.60
262;DHT22;114;48.260;10.988;2023-04-24T06:25:27;9.90;54.60
262;DHT22;114;48.260;10.988;2023-04-24T06:27:54;10.00;51.90
262;DHT22;114;48.260;10.988;2023-04-24T06:30:20;9.90;54.60
262;DHT22;114;48.260;10.988;2023-04-24T06:32:45;9.90;51.90
262;DHT22;114;48.260;10.988;2023-04-24T06:35:11;10.00;51.00
262;DHT22;114;48.260;10.988;2023-04-24T06:37:39;10.00;46.20
262;DHT22;114;48.260;10.988;2023-04-24T06:40:06;10.10;48.20
262;DHT22;114;48.260;10.988;2023-04-24T06:42:32;10.10;48.10
262;DHT22;114;48.260;10.988;2023-04-24T06:44:58;10.10;46.50
262;DHT22;114;48.260;10.988;2023-04-24T06:47:24;10.30;46.90
262;DHT22;114;48.260;10.988;2023-04-24T06:49:49;10.30;46.90
262;DHT22;114;48.260;10.988;2023-04-24T06:52:17;10.20;43.80
262;DHT22;114;48.260;10.988;2023-04-24T06:54:43;10.20;42.20
262;DHT22;114;48.260;10.988;2023-04-24T06:57:09;10.30;43.10
262;DHT22;114;48.260;10.988;2023-04-24T06:59:36;10.20;41.60
262;DHT22;114;48.260;10.988;2023-04-24T07:02:02;10.30;37.50
262;DHT22;114;48.260;10.988;2023-04-24T07:04:28;10.20;39.00
262;DHT22;114;48.260;10.988;2023-04-24T07:06:54;10.30;40.00
262;DHT22;114;48.260;10.988;2023-04-24T07:09:21;10.20;39.60
262;DHT22;114;48.260;10.988;2023-04-24T07:11:49;10.30;39.10
262;DHT22;114;48.260;10.988;2023-04-24T07:14:15;10.40;38.80
262;DHT22;114;48.260;10.988;2023-04-24T07:16:42;10.40;39.60
262;DHT22;114;48.260;10.988;2023-04-24T07:19:08;10.40;40.30
262;DHT22;114;48.260;10.988;2023-04-24T07:21:34;10.40;36.30
262;DHT22;114;48.260;10.988;2023-04-24T07:24:00;10.40;37.30
262;DHT22;114;48.260;10.988;2023-04-24T07:26:27;10.40;38.30
262;DHT22;114;48.260;10.988;2023-04-24T07:28:53;10.40;36.60
262;DHT22;114;48.260;10.988;2023-04-24T07:31:19;10.40;40.00
262;DHT22;114;48.260;10.988;2023-04-24T07:33:45;10.30;36.40
262;DHT22;114;48.260;10.988;2023-04-24T07:36:11;10.30;37.50
262;DHT22;114;48.260;10.988;2023-04-24T07:38:41;10.30;38.50
262;DHT22;114;48.260;10.988;2023-04-24T07:41:07;10.30;40.00
262;DHT22;114;48.260;10.988;2023-04-24T07:43:33;10.30;43.20
262;DHT22;114;48.260;10.988;2023-04-24T07:45:59;10.30;43.40
262;DHT22;114;48.260;10.988;2023-04-24T07:48:25;10.30;43.60
262;DHT22;114;48.260;10.988;2023-04-24T07:50:52;10.20;41.70
262;DHT22;114;48.260;10.988;2023-04-24T07:53:17;10.00;35.20
262;DHT22;114;48.260;10.988;2023-04-24T07:55:43;9.90;35.70
262;DHT22;114;48.260;10.988;2023-04-24T07:58:09;9.90;18.90
262;DHT22;114;48.260;10.988;2023-04-24T08:00:35;9.90;16.70
262;DHT22;114;48.260;10.988;2023-04-24T08:03:01;9.90;17.40
262;DHT22;114;48.260;10.988;2023-04-24T08:05:26;10.00;14.10
262;DHT22;114;48.260;10.988;2023-04-24T08:07:54;10.00;11.80
262;DHT22;114;48.260;10.988;2023-04-24T08:10:24;10.00;15.40
262;DHT22;114;48.260;10.988;2023-04-24T08:12:50;10.00;13.70
262;DHT22;114;48.260;10.988;2023-04-24T08:15:16;10.30;13.90
262;DHT22;114;48.260;10.988;2023-04-24T08:17:42;10.40;11.40
262;DHT22;114;48.260;10.988;2023-04-24T08:20:08;10.50;10.10
262;DHT22;114;48.260;10.988;2023-04-24T08:22:42;10.40;11.10
262;DHT22;114;48.260;10.988;2023-04-24T08:25:09;10.30;7.00
262;DHT22;114;48.260;10.988;2023-04-24T08:27:35;10.30;7.30
262;DHT22;114;48.260;10.988;2023-04-24T08:30:02;10.60;5.40
262;DHT22;114;48.260;10.988;2023-04-24T08:32:28;10.80;5.30
262;DHT22;114;48.260;10.988;2023-04-24T08:34:55;10.90;4.60
262;DHT22;114;48.260;10.988;2023-04-24T08:37:22;11.00;2.50
262;DHT22;114;48.260;10.988;2023-04-24T08:39:49;11.20;1.00
262;DHT22;114;48.260;10.988;2023-04-24T08:42:16;11.20;1.60
262;DHT22;114;48.260;10.988;2023-04-24T08:44:43;11.30;1.70
262;DHT22;114;48.260;10.988;2023-04-24T08:47:10;11.40;1.10
262;DHT22;114;48.260;10.988;2023-04-24T08:49:37;11.60;1.50
262;DHT22;114;48.260;10.988;2023-04-24T08:52:03;11.40;1.00
262;DHT22;114;48.260;10.988;2023-04-24T08:54:31;11.50;1.00
262;DHT22;114;48.260;10.988;2023-04-24T08:56:59;11.50;1.00
262;DHT22;114;48.260;10.988;2023-04-24T08:59:32;11.50;1.00
262;DHT22;114;48.260;10.988;2023-04-24T09:01:59;11.80;1.00
262;DHT22;114;48.260;10.988;2023-04-24T09:04:25;12.00;1.00
262;DHT22;114;48.260;10.988;2023-04-24T09:06:57;12.00;1.00
262;DHT22;114;48.260;10.988;2023-04-24T09:09:24;12.20;1.00
262;DHT22;114;48.260;10.988;2023-04-24T09:11:50;12.20;1.00
262;DHT22;114;48.260;10.988;2023-04-24T09:14:19;12.30;1.00
262;DHT22;114;48.260;10.988;2023-04-24T09:16:45;12.40;1.00
262;DHT22;114;48.260;10.988;2023-04-24T09:19:11;12.50;1.00
262;DHT22;114;48.260;10.988;2023-04-24T09:21:37;12.30;1.00
262;DHT22;114;48.260;10.988;2023-04-24T09:24:06;12.20;1.00
262;DHT22;114;48.260;10.988;2023-04-24T09:26:35;12.10;1.00
262;DHT22;114;48.260;10.988;2023-04-24T09:29:02;12.20;1.00
262;DHT22;114;48.260;10.988;2023-04-24T09:31:30;12.00;1.00
262;DHT22;114;48.260;10.988;2023-04-24T09:33:57;12.30;1.00
262;DHT22;114;48.260;10.988;2023-04-24T09:36:34;12.20;1.00
262;DHT22;114;48.260;10.988;2023-04-24T09:39:06;12.30;1.00
262;DHT22;114;48.260;10.988;2023-04-24T09:41:55;12.10;1.00
262;DHT22;114;48.260;10.988;2023-04-24T09:44:27;12.10;1.00
262;DHT22;114;48.260;10.988;2023-04-24T09:46:57;12.20;1.00
262;DHT22;114;48.260;10.988;2023-04-24T09:49:33;12.30;1.00
262;DHT22;114;48.260;10.988;2023-04-24T09:52:10;12.50;1.00
262;DHT22;114;48.260;10.988;2023-04-24T09:54:36;12.60;1.00
262;DHT22;114;48.260;10.988;2023-04-24T09:57:02;12.50;1.00
262;DHT22;114;48.260;10.988;2023-04-24T09:59:31;12.80;1.00
262;DHT22;114;48.260;10.988;2023-04-24T10:01:57;12.80;1.00
262;DHT22;114;48.260;10.988;2023-04-24T10:04:26;12.80;1.00
262;DHT22;114;48.260;10.988;2023-04-24T10:06:55;12.80;1.00
262;DHT22;114;48.260;10.988;2023-04-24T10:09:23;13.00;1.00
262;DHT22;114;48.260;10.988;2023-04-24T10:11:51;12.20;1.00
262;DHT22;114;48.260;10.988;2023-04-24T10:14:23;11.80;10.30
262;DHT22;114;48.260;10.988;2023-04-24T10:16:49;11.20;20.80
262;DHT22;114;48.260;10.988;2023-04-24T10:19:16;11.00;19.10
262;DHT22;114;48.260;10.988;2023-04-24T10:21:44;11.10;15.20
262;DHT22;114;48.260;10.988;2023-04-24T10:24:19;11.20;12.60
262;DHT22;114;48.260;10.988;2023-04-24T10:26:47;11.50;10.00
262;DHT22;114;48.260;10.988;2023-04-24T10:29:14;11.70;5.50
262;DHT22;114;48.260;10.988;2023-04-24T10:31:41;11.70;2.90
262;DHT22;114;48.260;10.988;2023-04-24T10:34:09;11.50;3.80
262;DHT22;114;48.260;10.988;2023-04-24T10:36:38;11.20;2.00
262;DHT22;114;48.260;10.988;2023-04-24T10:39:09;11.00;5.20
262;DHT22;114;48.260;10.988;2023-04-24T10:41:37;10.70;9.10
262;DHT22;114;48.260;10.988;2023-04-24T10:44:12;10.10;13.50
262;DHT22;114;48.260;10.988;2023-04-24T10:46:39;10.10;13.40
262;DHT22;114;48.260;10.988;2023-04-24T10:49:08;9.70;19.00
262;DHT22;114;48.260;10.988;2023-04-24T10:51:53;10.40;19.80
262;DHT22;114;48.260;10.988;2023-04-24T10:54:33;10.60;11.10
262;DHT22;114;48.260;10.988;2023-04-24T10:57:31;10.60;11.30
262;DHT22;114;48.260;10.988;2023-04-24T11:02:40;11.00;2.10
262;DHT22;114;48.260;10.988;2023-04-24T11:05:15;11.20;1.00
262;DHT22;114;48.260;10.988;2023-04-24T11:10:45;11.70;1.00
262;DHT22;114;48.260;10.988;2023-04-24T11:13:16;12.30;1.00
262;DHT22;114;48.260;10.988;2023-04-24T11:15:42;12.90;1.00
262;DHT22;114;48.260;10.988;2023-04-24T11:18:15;13.10;1.00
262;DHT22;114;48.260;10.988;2023-04-24T11:20:44;13.10;1.00
262;DHT22;114;48.260;10.988;2023-04-24T11:23:13;13.40;1.00
262;DHT22;114;48.260;10.988;2023-04-24T11:25:39;13.30;1.00
262;DHT22;114;48.260;10.988;2023-04-24T11:28:07;12.80;1.00
262;DHT22;114;48.260;10.988;2023-04-24T11:30:33;12.80;1.00
262;DHT22;114;48.260;10.988;2023-04-24T11:33:05;13.00;1.00
262;DHT22;114;48.260;10.988;2023-04-24T11:35:36;13.40;1.00
262;DHT22;114;48.260;10.988;2023-04-24T11:38:04;13.60;1.00
262;DHT22;114;48.260;10.988;2023-04-24T11:40:31;14.00;1.00
262;DHT22;114;48.260;10.988;2023-04-24T11:42:59;13.40;1.00
262;DHT22;114;48.260;10.988;2023-04-24T11:45:30;13.40;1.00
262;DHT22;114;48.260;10.988;2023-04-24T11:47:56;13.80;1.00
262;DHT22;114;48.260;10.988;2023-04-24T11:50:24;14.20;1.00
262;DHT22;114;48.260;10.988;2023-04-24T11:52:53;14.60;1.00
262;DHT22;114;48.260;10.988;2023-04-24T11:57:46;15.10;1.00
262;DHT22;114;48.260;10.988;2023-04-24T12:00:17;15.10;1.00
262;DHT22;114;48.260;10.988;2023-04-24T12:02:44;15.00;1.00
262;DHT22;114;48.260;10.988;2023-04-24T12:05:19;15.00;1.00
262;DHT22;114;48.260;10.988;2023-04-24T12:07:46;15.70;1.00
262;DHT22;114;48.260;10.988;2023-04-24T12:10:11;16.20;1.00
262;DHT22;114;48.260;10.988;2023-04-24T12:12:37;14.80;1.00
262;DHT22;114;48.260;10.988;2023-04-24T12:15:07;13.80;1.00
262;DHT22;114;48.260;10.988;2023-04-24T12:17:34;13.30;1.00
262;DHT22;114;48.260;10.988;2023-04-24T12:20:05;13.20;1.00
262;DHT22;114;48.260;10.988;2023-04-24T12:25:15;14.00;1.00
262;DHT22;114;48.260;10.988;2023-04-24T12:27:41;15.50;1.00
262;DHT22;114;48.260;10.988;2023-04-24T12:30:14;16.70;1.00
262;DHT22;114;48.260;10.988;2023-04-24T12:32:44;16.90;1.00
262;DHT22;114;48.260;10.988;2023-04-24T12:35:10;17.80;1.00
262;DHT22;114;48.260;10.988;2023-04-24T12:37:36;17.00;1.00
262;DHT22;114;48.260;10.988;2023-04-24T12:40:12;17.10;1.00
262;DHT22;114;48.260;10.988;2023-04-24T12:45:09;17.10;1.00
262;DHT22;114;48.260;10.988;2023-04-24T12:47:35;16.70;1.00
262;DHT22;114;48.260;10.988;2023-04-24T12:50:02;15.80;1.00
262;DHT22;114;48.260;10.988;2023-04-24T12:52:29;15.20;1.00
262;DHT22;114;48.260;10.988;2023-04-24T12:54:58;15.70;1.00
262;DHT22;114;48.260;10.988;2023-04-24T12:57:24;15.20;1.00
262;DHT22;114;48.260;10.988;2023-04-24T12:59:53;14.50;1.00
262;DHT22;114;48.260;10.988;2023-04-24T13:02:18;14.40;1.00
262;DHT22;114;48.260;10.988;2023-04-24T13:04:45;14.60;1.00
262;DHT22;114;48.260;10.988;2023-04-24T13:07:15;16.20;1.00
262;DHT22;114;48.260;10.988;2023-04-24T13:09:42;16.40;1.00
262;DHT22;114;48.260;10.988;2023-04-24T13:12:09;15.40;1.00
262;DHT22;114;48.260;10.988;2023-04-24T13:14:35;14.40;1.00
262;DHT22;114;48.260;10.988;2023-04-24T13:17:01;13.90;1.00
262;DHT22;114;48.260;10.988;2023-04-24T13:19:27;13.50;1.00
262;DHT22;114;48.260;10.988;2023-04-24T13:21:54;13.20;1.00
262;DHT22;114;48.260;10.988;2023-04-24T13:24:21;13.00;1.00
262;DHT22;114;48.260;10.988;2023-04-24T13:26:50;12.90;1.00
262;DHT22;114;48.260;10.988;2023-04-24T13:29:16;12.80;1.00
262;DHT22;114;48.260;10.988;2023-04-24T13:31:41;12.90;1.00
262;DHT22;114;48.260;10.988;2023-04-24T13:34:08;13.00;1.00
262;DHT22;114;48.260;10.988;2023-04-24T13:36:34;13.70;1.00
262;DHT22;114;48.260;10.988;2023-04-24T13:39:01;13.70;1.00
262;DHT22;114;48.260;10.988;2023-04-24T13:41:26;14.30;1.00
262;DHT22;114;48.260;10.988;2023-04-24T13:43:52;15.30;1.00
262;DHT22;114;48.260;10.988;2023-04-24T13:46:18;15.80;1.00
262;DHT22;114;48.260;10.988;2023-04-24T13:48:43;16.20;1.00
262;DHT22;114;48.260;10.988;2023-04-24T13:51:09;15.50;1.00
262;DHT22;114;48.260;10.988;2023-04-24T13:53:36;15.20;1.00
262;DHT22;114;48.260;10.988;2023-04-24T13:56:04;15.30;1.00
262;DHT22;114;48.260;10.988;2023-04-24T13:58:30;14.80;1.00
262;DHT22;114;48.260;10.988;2023-04-24T14:00:56;13.90;1.00
262;DHT22;114;48.260;10.988;2023-04-24T14:03:21;13.60;1.00
262;DHT22;114;48.260;10.988;2023-04-24T14:05:47;13.60;1.00
262;DHT22;114;48.260;10.988;2023-04-24T14:08:16;13.30;1.00
262;DHT22;114;48.260;10.988;2023-04-24T14:10:43;13.00;1.00
262;DHT22;114;48.260;10.988;2023-04-24T14:13:08;13.00;1.00
262;DHT22;114;48.260;10.988;2023-04-24T14:15:35;13.10;1.00
262;DHT22;114;48.260;10.988;2023-04-24T14:18:01;13.20;1.00
262;DHT22;114;48.260;10.988;2023-04-24T14:20:28;13.20;1.00
262;DHT22;114;48.260;10.988;2023-04-24T14:22:54;13.40;1.00
262;DHT22;114;48.260;10.988;2023-04-24T14:25:20;13.60;1.00
262;DHT22;114;48.260;10.988;2023-04-24T14:27:47;13.50;1.00
262;DHT22;114;48.260;10.988;2023-04-24T14:30:13;15.20;1.00
262;DHT22;114;48.260;10.988;2023-04-24T14:32:40;15.60;1.00
262;DHT22;114;48.260;10.988;2023-04-24T14:35:07;15.40;1.00
262;DHT22;114;48.260;10.988;2023-04-24T14:37:33;16.40;1.00
262;DHT22;114;48.260;10.988;2023-04-24T14:39:58;17.00;1.00
262;DHT22;114;48.260;10.988;2023-04-24T14:42:24;17.30;1.00
262;DHT22;114;48.260;10.988;2023-04-24T14:44:50;18.30;1.00
262;DHT22;114;48.260;10.988;2023-04-24T14:47:16;18.10;1.00
262;DHT22;114;48.260;10.988;2023-04-24T14:49:50;18.30;1.00
262;DHT22;114;48.260;10.988;2023-04-24T14:52:16;18.20;1.00
262;DHT22;114;48.260;10.988;2023-04-24T14:54:44;17.60;1.00
262;DHT22;114;48.260;10.988;2023-04-24T14:57:09;17.60;1.00
262;DHT22;114;48.260;10.988;2023-04-24T14:59:36;17.40;1.00
262;DHT22;114;48.260;10.988;2023-04-24T15:02:02;17.00;1.00
262;DHT22;114;48.260;10.988;2023-04-24T15:04:28;17.00;1.00
262;DHT22;114;48.260;10.988;2023-04-24T15:06:55;16.60;1.00
262;DHT22;114;48.260;10.988;2023-04-24T15:09:23;17.90;1.00
262;DHT22;114;48.260;10.988;2023-04-24T15:11:50;16.30;1.00
262;DHT22;114;48.260;10.988;2023-04-24T15:14:17;16.70;1.00
262;DHT22;114;48.260;10.988;2023-04-24T15:16:43;17.10;1.00
262;DHT22;114;48.260;10.988;2023-04-24T15:19:10;17.60;1.00
262;DHT22;114;48.260;10.988;2023-04-24T15:21:37;18.40;1.00
262;DHT22;114;48.260;10.988;2023-04-24T15:24:03;17.40;1.00
262;DHT22;114;48.260;10.988;2023-04-24T15:26:29;15.50;1.00
262;DHT22;114;48.260;10.988;2023-04-24T15:28:55;14.40;1.00
262;DHT22;114;48.260;10.988;2023-04-24T15:31:21;14.30;1.00
262;DHT22;114;48.260;10.988;2023-04-24T15:33:48;14.20;1.00
262;DHT22;114;48.260;10.988;2023-04-24T15:36:15;15.60;1.00
262;DHT22;114;48.260;10.988;2023-04-24T15:38:41;15.20;1.00
262;DHT22;114;48.260;10.988;2023-04-24T15:41:08;14.70;1.00
262;DHT22;114;48.260;10.988;2023-04-24T15:43:33;14.40;1.00
262;DHT22;114;48.260;10.988;2023-04-24T15:46:00;14.50;1.00
262;DHT22;114;48.260;10.988;2023-04-24T15:48:28;15.00;1.00
262;DHT22;114;48.260;10.988;2023-04-24T15:50:54;14.10;1.00
262;DHT22;114;48.260;10.988;2023-04-24T15:53:20;13.50;1.00
262;DHT22;114;48.260;10.988;2023-04-24T15:55:50;13.30;1.00
262;DHT22;114;48.260;10.988;2023-04-24T15:58:16;13.50;1.00
262;DHT22;114;48.260;10.988;2023-04-24T16:00:42;13.80;1.00
262;DHT22;114;48.260;10.988;2023-04-24T16:03:08;13.90;1.00
262;DHT22;114;48.260;10.988;2023-04-24T16:05:34;14.50;1.00
262;DHT22;114;48.260;10.988;2023-04-24T16:07:59;15.00;1.00
262;DHT22;114;48.260;10.988;2023-04-24T16:10:25;15.10;1.00
262;DHT22;114;48.260;10.988;2023-04-24T16:12:51;14.30;1.00
262;DHT22;114;48.260;10.988;2023-04-24T16:15:19;13.50;1.00
262;DHT22;114;48.260;10.988;2023-04-24T16:17:45;13.20;1.00
262;DHT22;114;48.260;10.988;2023-04-24T16:20:12;12.70;1.00
262;DHT22;114;48.260;10.988;2023-04-24T16:22:38;12.70;1.00
262;DHT22;114;48.260;10.988;2023-04-24T16:25:04;12.70;1.00
262;DHT22;114;48.260;10.988;2023-04-24T16:27:30;12.60;1.00
262;DHT22;114;48.260;10.988;2023-04-24T16:29:56;12.60;1.00
262;DHT22;114;48.260;10.988;2023-04-24T16:32:22;12.40;1.00
262;DHT22;114;48.260;10.988;2023-04-24T16:34:48;12.30;1.00
262;DHT22;114;48.260;10.988;2023-04-24T16:37:13;12.20;1.00
262;DHT22;114;48.260;10.988;2023-04-24T16:39:39;12.20;1.00
262;DHT22;114;48.260;10.988;2023-04-24T16:42:12;12.10;1.00